Pagrindinis puslapis
METAR-TAF:

METAR-TAF

Oro uostai :

Kuveitas, Kuveitas

platuma: 29-13N, ilguma: 047-59E, Aukštis: 55 m

Dabartinis oras

Ataskaita buvo paskelbta 49 minutes, ne 03:00 UTC
Vėjas 9 kt iš Šiaurės
Temperatūra 35°C
Drėgmė 25%
Slėgis 1000 hPa
Matomumas 10 km arba daugiau
nėra debesų žemiau 1500 m ir nėra kamuolinių lietaus debesų

METAR: OKBK 160300Z 35009KT CAVOK 35/12 Q1000 NOSIG

Laikas: 06:49 (03:49 UTC)

Prognozė

Ataskaita buvo paskelbta 4 valandos ir 49 minutes, ne 23:00 UTC
Prognozė galioja nuo 16 metu 00 UTC su 17 metu 06 UTC
Vėjas 10 kt iš Šiaurės/Šiaurės Vakarų su gūsio iki 22 kt
Matomumas: 7000 m
Laikinai
nuo 16 metu 06 UTC su 16 metu 12 UTC
Matomumas: 3000 m
Dulkes pustymas

TAF: OKBK 152300Z 1600/1706 34010G22KT 7000 NSC TEMPO 1606/1612 3000 BLDU

Orai ataskaitas ir orų prognozės (METAR, TAF).

turimą stotys yra geltonos ir raudonos taškus žemėlapyje.

Perkelti pele per norėdami pamatyti stoties vardą.

Tada spustelėkite, norėdami matyti oro stebėjimo ir prognozės.

Norėdami pakeisti žemėlapį: spustelėkite ant žalios mygtukų su juodo kryžiaus žemyn,; žalią mygtuką su brūkšneliu, jei norite nutolinti; arba žalių rodyklių gretimoms žemėlapius.


METAR-TAF: